Terminal Aerodrome Forecast
Issued by NWS

Home | Current Version | Previous Version | Text Only | Print | Product List | Glossary On
Versions: 1 2 3 4 5 6 7 8 9 10 11 12 13 14 15 16
000
FTUS45 KREV 010520
TAFCXP
TAF
KCXP 010520Z 0106/0206 01008KT P6SM FEW060
     FM011800 07010G19KT P6SM SCT040
     FM020300 VRB04KT P6SM FEW090=

USA.gov is the U.S. government's official web portal to all federal, state and local government web resources and services.